Time;durP1;ratioP1;P1;durP2;ratioP2;P2;SDS_P1;SDS_P2;PMS_P1;PMS_P2;Temp;Humidity;BMP_temperature;BMP_pressure;BME280_temperature;BME280_humidity;BME280_pressure;Samples;Min_cycle;Max_cycle;Signal;HPM_P1;HPM_P2
2022/05/09 00:02:12;;;;;;;11.85;2.13;;;;;;;9.89;89.97;100582.34;10372805;28;20517;-74
2022/05/09 00:07:13;;;;;;;3.83;2.05;;;;;;;9.65;90.40;100560.97;10371549;28;20049;-73
2022/05/09 00:12:14;;;;;;;4.63;1.67;;;;;;;9.49;90.74;100546.63;10372426;28;20037;-73
2022/05/09 00:17:14;;;;;;;25.80;3.35;;;;;;;9.72;90.68;100580.56;10372041;28;20042;-73
2022/05/09 00:22:15;;;;;;;5.55;2.17;;;;;;;9.75;90.89;100583.78;10372704;28;20396;-74
2022/05/09 00:27:16;;;;;;;6.82;1.58;;;;;;;9.66;90.31;100568.78;10372479;28;20030;-75
2022/05/09 00:32:17;;;;;;;6.10;2.58;;;;;;;9.64;90.43;100568.13;10372080;28;20129;-74
2022/05/09 00:37:17;;;;;;;8.95;3.05;;;;;;;9.22;89.88;100476.03;10371202;28;20099;-74
2022/05/09 00:42:19;;;;;;;8.07;3.17;;;;;;;8.77;89.54;100415.28;10371918;28;20088;-73
2022/05/09 00:47:21;;;;;;;10.15;3.55;;;;;;;9.83;89.51;100570.53;10371653;28;20125;-74
2022/05/09 00:52:57;;;;;;;18.25;3.70;;;;;;;9.88;89.21;100574.56;10373957;28;20057;-74
2022/05/09 00:58:15;;;;;;;11.32;3.83;;;;;;;9.95;89.59;100575.56;10375561;28;20046;-74
2022/05/09 01:03:32;;;;;;;17.00;4.20;;;;;;;9.82;89.08;100562.75;10379665;28;20045;-74
2022/05/09 01:08:33;;;;;;;14.20;4.20;;;;;;;9.08;88.64;100456.22;10378358;28;20069;-74
2022/05/09 01:13:38;;;;;;;19.48;4.30;;;;;;;9.52;89.00;100540.19;10378206;28;20046;-76
2022/05/09 01:18:39;;;;;;;24.98;4.38;;;;;;;8.97;89.07;100461.78;10379502;28;20121;-73
2022/05/09 01:23:40;;;;;;;13.27;4.25;;;;;;;7.76;89.63;100301.75;10378256;28;20474;-73
2022/05/09 01:28:42;;;;;;;14.07;3.95;;;;;;;8.79;90.35;100490.09;10378561;28;20108;-74
2022/05/09 01:33:46;;;;;;;12.00;3.90;;;;;;;8.44;90.68;100429.09;10378275;28;20056;-74
2022/05/09 01:39:02;;;;;;;17.90;4.57;;;;;;;8.96;92.27;100518.41;10376171;28;20038;-74
2022/05/09 01:44:03;;;;;;;6.80;3.67;;;;;;;9.34;90.88;100569.41;10377098;28;20049;-73
2022/05/09 01:54:23;;;;;;;13.93;4.50;;;;;;;8.23;90.15;100381.72;10377772;28;20065;-73
2022/05/09 01:59:24;;;;;;;11.82;4.30;;;;;;;9.48;89.82;100590.06;10376102;28;20050;-74
2022/05/09 02:04:25;;;;;;;15.48;4.93;;;;;;;9.46;90.36;100578.78;10376267;28;20042;-74
2022/05/09 02:09:26;;;;;;;12.63;4.32;;;;;;;9.43;90.52;100570.28;10376661;28;20045;-75
2022/05/09 02:14:27;;;;;;;9.90;4.32;;;;;;;9.44;90.53;100570.13;10376511;28;20065;-74
2022/05/09 02:19:28;;;;;;;12.50;4.25;;;;;;;9.33;90.43;100552.66;10375554;28;20034;-73
2022/05/09 02:24:29;;;;;;;12.40;4.20;;;;;;;8.86;89.69;100464.69;10376001;28;20081;-74
2022/05/09 02:29:31;;;;;;;9.60;3.78;;;;;;;9.44;89.51;100543.59;10375224;28;20038;-74
2022/05/09 02:34:33;;;;;;;6.93;3.38;;;;;;;9.58;89.22;100566.09;10375740;28;20497;-74
2022/05/09 02:39:34;;;;;;;9.38;3.70;;;;;;;9.81;89.37;100598.22;10375344;28;20046;-74
2022/05/09 02:44:35;;;;;;;11.95;3.58;;;;;;;9.92;88.97;100607.72;10375586;28;20041;-74
2022/05/09 02:49:36;;;;;;;11.02;3.70;;;;;;;9.83;88.93;100572.34;10374933;28;20038;-74
2022/05/09 02:54:37;;;;;;;7.55;3.35;;;;;;;9.89;88.67;100577.03;10374485;28;20497;-75
2022/05/09 02:59:38;;;;;;;14.65;3.88;;;;;;;9.92;88.49;100571.41;10374720;28;20050;-74
2022/05/09 03:04:39;;;;;;;7.40;3.20;;;;;;;10.11;88.35;100588.94;10368445;28;20088;-74
2022/05/09 03:09:42;;;;;;;11.98;3.13;;;;;;;8.67;87.85;100349.16;10333731;28;20375;-74
2022/05/09 03:14:44;;;;;;;10.70;2.90;;;;;;;10.00;88.01;100552.06;10332726;28;20042;-74
2022/05/09 03:19:44;;;;;;;10.68;3.13;;;;;;;10.70;87.30;100607.59;10333324;28;20482;-74
2022/05/09 03:24:45;;;;;;;11.02;3.10;;;;;;;10.60;86.92;100575.03;10333606;28;20046;-74
2022/05/09 03:29:46;;;;;;;6.65;2.65;;;;;;;9.77;84.89;100421.78;10333112;28;20038;-73
2022/05/09 03:34:47;;;;;;;7.45;3.00;;;;;;;10.49;83.50;100520.38;10332706;28;20038;-74
2022/05/09 03:39:47;;;;;;;11.65;2.60;;;;;;;10.91;82.89;100564.59;10347415;28;20490;-74
2022/05/09 03:44:48;;;;;;;5.07;2.30;;;;;;;10.49;82.02;100444.16;10331857;28;20068;-74
2022/05/09 03:49:50;;;;;;;6.40;2.63;;;;;;;11.74;81.72;100575.03;10332737;28;20049;-74
2022/05/09 03:54:51;;;;;;;7.15;2.50;;;;;;;11.92;78.66;100510.97;10331960;28;20417;-74
2022/05/09 03:59:52;;;;;;;8.20;2.35;;;;;;;12.18;76.93;100485.88;10353154;28;20044;-75
2022/05/09 04:04:53;;;;;;;6.55;2.05;;;;;;;12.97;75.06;100505.97;10369656;28;20529;-74
2022/05/09 04:09:56;;;;;;;6.30;2.13;;;;;;;14.43;73.09;100598.06;10355497;28;20169;-74
2022/05/09 04:20:16;;;;;;;8.18;2.28;;;;;;;14.00;70.89;100539.16;10332317;28;20043;-75
2022/05/09 04:25:19;;;;;;;4.97;1.98;;;;;;;15.23;67.84;100551.59;10342586;28;20046;-73
2022/05/09 04:30:20;;;;;;;7.45;1.95;;;;;;;16.03;65.74;100597.69;10344973;28;20038;-74
2022/05/09 04:35:21;;;;;;;4.32;1.80;;;;;;;15.26;64.06;100448.69;10378057;28;20180;-75
2022/05/09 04:40:25;;;;;;;9.50;2.03;;;;;;;15.27;62.50;100475.25;10379342;28;20576;-73
2022/05/09 04:45:28;;;;;;;6.40;2.05;;;;;;;15.58;63.04;100570.38;10357318;28;20110;-76
2022/05/09 04:50:32;;;;;;;5.50;2.03;;;;;;;15.34;63.36;100582.34;10366621;28;20439;-74
2022/05/09 04:55:32;;;;;;;9.80;2.67;;;;;;;13.52;62.88;100332.34;10379911;28;20058;-75
2022/05/09 05:00:33;;;;;;;6.32;2.20;;;;;;;15.13;62.11;100539.56;10379084;28;20116;-74
2022/05/09 05:05:35;;;;;;;5.88;1.90;;;;;;;15.76;60.53;100545.81;10378876;28;20096;-76
2022/05/09 05:10:36;;;;;;;4.75;1.70;;;;;;;14.91;59.49;100360.38;10378741;28;20073;-76
2022/05/09 05:15:36;;;;;;;8.50;2.40;;;;;;;15.48;58.38;100410.09;10378820;28;20048;-74
2022/05/09 05:20:37;;;;;;;6.00;2.15;;;;;;;16.80;56.63;100564.41;10364762;28;20045;-75
2022/05/09 05:25:40;;;;;;;4.43;2.15;;;;;;;17.17;56.10;100578.31;10378259;28;20045;-76
2022/05/09 05:30:42;;;;;;;6.07;2.08;;;;;;;17.38;55.08;100565.69;10378157;28;20060;-79
2022/05/09 05:35:43;;;;;;;6.85;2.10;;;;;;;16.93;54.22;100458.13;10376029;28;20053;-74
2022/05/09 05:40:44;;;;;;;8.27;1.90;;;;;;;16.75;53.87;100422.00;10350993;28;20069;-73
2022/05/09 05:45:46;;;;;;;4.43;1.90;;;;;;;17.58;53.27;100535.09;10346847;28;20046;-73
2022/05/09 05:50:48;;;;;;;9.38;2.40;;;;;;;17.45;52.97;100475.22;10356657;28;20049;-71
2022/05/09 05:55:49;;;;;;;5.65;1.73;;;;;;;18.24;52.24;100555.59;10342027;28;20092;-75
2022/05/09 06:00:49;;;;;;;6.38;2.03;;;;;;;16.41;51.87;100291.63;10359083;28;20080;-74
2022/05/09 06:05:50;;;;;;;9.15;2.58;;;;;;;17.70;52.30;100537.97;10369638;28;20092;-76
2022/05/09 06:10:51;;;;;;;6.97;1.95;;;;;;;16.53;51.66;100308.72;10373492;28;20417;-77
2022/05/09 06:15:52;;;;;;;4.15;1.92;;;;;;;17.81;50.78;100485.47;10374461;28;20034;-77
2022/05/09 06:20:53;;;;;;;5.07;2.15;;;;;;;17.14;51.34;100355.94;10374831;28;20052;-76
2022/05/09 06:25:54;;;;;;;7.63;2.08;;;;;;;15.81;49.08;100109.47;10374730;28;20052;-74
2022/05/09 06:30:56;;;;;;;6.03;1.73;;;;;;;18.63;48.36;100537.63;10375162;28;20561;-73
2022/05/09 06:35:59;;;;;;;3.95;1.70;;;;;;;18.55;48.16;100531.69;10373584;28;20061;-78
2022/05/09 06:41:01;;;;;;;5.90;1.85;;;;;;;16.69;48.65;100239.59;10374891;28;20052;-76
2022/05/09 06:46:03;;;;;;;5.68;2.15;;;;;;;18.69;47.01;100531.38;10373724;28;20049;-75
2022/05/09 06:51:04;;;;;;;5.38;1.70;;;;;;;18.87;46.25;100489.47;10374751;28;20088;-76
2022/05/09 06:56:05;;;;;;;9.07;2.15;;;;;;;18.76;45.61;100436.38;10373185;28;20065;-73
2022/05/09 07:01:14;;;;;;;5.10;1.80;;;;;;;18.32;43.45;100292.88;10372857;28;20045;-75
2022/05/09 07:06:16;;;;;;;5.55;1.83;;;;;;;18.38;44.17;100302.75;10373831;28;20498;-74
2022/05/09 07:11:17;;;;;;;6.03;2.20;;;;;;;18.85;43.76;100351.63;10373934;28;20038;-76
2022/05/09 07:16:18;;;;;;;4.95;2.15;;;;;;;19.76;42.40;100507.09;10373418;28;20060;-73
2022/05/09 07:21:19;;;;;;;4.03;1.70;;;;;;;19.10;41.38;100424.25;10372668;28;20119;-74
2022/05/09 07:26:20;;;;;;;7.60;1.90;;;;;;;19.84;41.30;100509.50;10360930;28;20124;-73
2022/05/09 07:31:20;;;;;;;10.55;2.05;;;;;;;19.99;39.73;100506.44;10364293;28;20053;-75
2022/05/09 07:36:21;;;;;;;5.22;2.20;;;;;;;19.14;40.11;100353.59;10373398;28;20080;-75
2022/05/09 07:41:22;;;;;;;9.38;2.40;;;;;;;19.86;39.32;100503.88;10373574;28;20041;-74
2022/05/09 07:46:23;;;;;;;7.28;1.90;;;;;;;18.87;41.09;100350.31;10353099;28;20050;-73
2022/05/09 07:51:24;;;;;;;6.68;1.92;;;;;;;19.56;40.18;100491.13;10331889;28;20050;-76
2022/05/09 07:56:25;;;;;;;5.45;2.08;;;;;;;19.13;39.62;100362.69;10332559;28;20490;-71
2022/05/09 08:01:26;;;;;;;3.83;1.70;;;;;;;19.98;39.24;100453.56;10350497;28;20052;-74
2022/05/09 08:06:27;;;;;;;3.88;2.13;;;;;;;19.70;40.02;100435.22;10372545;28;20052;-77
2022/05/09 08:11:28;;;;;;;3.92;1.80;;;;;;;19.73;37.67;100466.31;10373118;28;20524;-78
2022/05/09 08:16:30;;;;;;;3.70;1.70;;;;;;;19.19;37.89;100373.63;10372787;28;20041;-74
2022/05/09 08:21:31;;;;;;;8.55;1.90;;;;;;;19.38;38.50;100440.75;10371046;28;20537;-74
2022/05/09 08:26:33;;;;;;;6.85;2.03;;;;;;;18.98;36.84;100311.09;10372229;28;20160;-74
2022/05/09 08:31:34;;;;;;;5.72;1.90;;;;;;;19.50;36.19;100308.78;10372173;28;20045;-76
2022/05/09 08:36:48;;;;;;;4.70;1.90;;;;;;;19.65;35.67;100300.31;10372236;28;20121;-75
2022/05/09 08:42:04;;;;;;;4.70;2.08;;;;;;;20.57;34.67;100466.47;10372782;28;20046;-73
2022/05/09 08:47:11;;;;;;;5.38;2.47;;;;;;;20.37;35.50;100459.47;10372213;28;20045;-76
2022/05/09 08:52:42;;;;;;;5.13;2.10;;;;;;;20.14;33.99;100457.50;10370906;28;20054;-73
2022/05/09 08:57:47;;;;;;;6.95;2.20;;;;;;;20.19;34.55;100438.75;10371948;28;20579;-74
2022/05/09 09:03:01;;;;;;;4.60;2.03;;;;;;;20.41;34.15;100454.41;10371364;28;20038;-73
2022/05/09 09:08:49;;;;;;;9.50;3.28;;;;;;;20.46;35.52;100449.97;10371938;28;20041;-75
2022/05/09 09:14:08;;;;;;;5.72;2.40;;;;;;;19.62;33.86;100303.44;10374890;28;20116;-74
2022/05/09 09:19:15;;;;;;;8.07;3.22;;;;;;;20.49;33.46;100438.72;10379113;28;20623;-74
2022/05/09 09:24:43;;;;;;;3.78;2.28;;;;;;;20.22;33.06;100388.91;10377858;28;20183;-74
2022/05/09 09:29:52;;;;;;;7.47;3.40;;;;;;;20.20;36.08;100436.88;10376921;28;20076;-74
2022/05/09 09:34:59;;;;;;;10.95;2.78;;;;;;;20.14;35.45;100427.00;10378127;28;20611;-75
2022/05/09 09:40:00;;;;;;;5.80;2.40;;;;;;;19.33;35.22;100315.88;10377988;28;20088;-74
2022/05/09 09:45:03;;;;;;;5.07;2.50;;;;;;;19.95;35.48;100437.00;10377738;28;20096;-73
2022/05/09 09:50:19;;;;;;;8.70;2.55;;;;;;;19.83;37.33;100434.22;10376619;28;20070;-74
2022/05/09 09:55:30;;;;;;;6.60;2.33;;;;;;;19.72;35.65;100408.88;10377349;28;20057;-74
2022/05/09 10:00:37;;;;;;;6.07;1.95;;;;;;;20.06;35.49;100412.78;10377600;28;20093;-73
2022/05/09 10:05:38;;;;;;;6.78;2.50;;;;;;;20.26;36.18;100428.69;10336341;28;20042;-75
2022/05/09 10:11:00;;;;;;;5.85;2.25;;;;;;;19.90;37.04;100380.25;10336094;28;20173;-72
2022/05/09 10:16:05;;;;;;;6.65;3.08;;;;;;;20.40;37.26;100426.63;10335902;28;20485;-74
2022/05/09 10:24:47;;;;;;;10.40;3.10;;;;;;;20.33;36.27;100433.97;10335994;28;20038;-74
2022/05/09 10:26:50;;;;;;;5.53;2.20;;;;;;;20.13;35.03;100423.47;10353985;28;20077;-73
2022/05/09 10:32:04;;;;;;;9.45;2.50;;;;;;;20.06;35.51;100422.75;10376393;28;20149;-71
2022/05/09 10:37:07;;;;;;;;;;;;;;;20.43;36.75;100411.81;10372657;28;20034;-72
2022/05/09 10:42:10;;;;;;;6.68;2.70;;;;;;;20.62;35.24;100372.13;10373720;28;19921;-73
2022/05/09 10:47:30;;;;;;;5.73;2.27;;;;;;;21.35;33.99;100409.41;10374911;28;20107;-76
2022/05/09 10:52:41;;;;;;;10.30;3.30;;;;;;;21.51;33.31;100413.31;10374451;28;20426;-73
2022/05/09 10:58:19;;;;;;;10.98;4.57;;;;;;;21.76;33.60;100410.31;10375120;28;20132;-72
2022/05/09 11:03:41;;;;;;;5.50;3.42;;;;;;;21.94;34.20;100394.97;10370368;28;20058;-74
2022/05/09 11:08:58;;;;;;;8.55;3.17;;;;;;;22.00;32.53;100396.69;10374077;28;20413;-74
2022/05/09 11:14:02;;;;;;;18.45;7.43;;;;;;;21.87;32.20;100419.44;10357613;28;20046;-71
2022/05/09 11:19:29;;;;;;;43.22;19.30;;;;;;;22.01;31.69;100398.31;10352440;28;20497;-73
2022/05/09 11:24:58;;;;;;;45.13;22.27;;;;;;;22.22;31.50;100403.06;10360141;28;20424;-74
2022/05/09 11:30:25;;;;;;;23.10;9.32;;;;;;;21.89;31.29;100382.97;10341426;28;20050;-73
2022/05/09 11:35:31;;;;;;;25.90;14.80;;;;;;;21.77;31.15;100373.28;10360102;28;20042;-74
2022/05/09 11:41:00;;;;;;;15.93;9.35;;;;;;;21.84;30.91;100376.66;10372590;28;20092;-74
2022/05/09 11:46:19;;;;;;;14.30;8.40;;;;;;;21.05;31.30;100260.22;10366879;28;20038;-72
2022/05/09 11:51:40;;;;;;;17.73;10.02;;;;;;;21.91;31.63;100390.84;10353786;28;20050;-75
2022/05/09 11:56:45;;;;;;;13.05;9.05;;;;;;;21.45;31.30;100348.56;10363261;28;20164;-75
2022/05/09 12:02:13;;;;;;;10.02;5.38;;;;;;;21.85;30.36;100384.53;10372836;28;20512;-73
2022/05/09 12:07:44;;;;;;;11.35;3.80;;;;;;;22.09;31.14;100379.81;10372439;28;20053;-73
2022/05/09 12:12:49;;;;;;;7.72;5.05;;;;;;;20.85;30.77;100210.16;10372444;28;20184;-74
2022/05/09 12:18:18;;;;;;;18.75;10.27;;;;;;;21.51;30.92;100342.22;10372815;28;20041;-73
2022/05/09 12:23:45;;;;;;;10.52;5.13;;;;;;;21.35;32.70;100352.69;10360105;28;20058;-74
2022/05/09 12:28:48;;;;;;;7.80;4.75;;;;;;;20.75;31.85;100247.72;10332256;28;20465;-72
2022/05/09 12:33:51;;;;;;;8.00;3.63;;;;;;;21.60;31.57;100365.94;10335486;28;20097;-74
2022/05/09 12:38:54;;;;;;;8.33;3.73;;;;;;;21.59;32.45;100353.47;10348740;28;20035;-73
2022/05/09 12:44:15;;;;;;;5.88;2.92;;;;;;;21.06;31.47;100249.19;10332173;28;20054;-73
2022/05/09 12:49:19;;;;;;;7.38;2.47;;;;;;;21.56;32.36;100334.19;10363916;28;20038;-73
2022/05/09 12:54:23;;;;;;;8.45;2.70;;;;;;;21.88;32.49;100351.59;10359148;28;20047;-72
2022/05/09 12:59:25;;;;;;;4.93;2.40;;;;;;;21.77;32.46;100341.63;10357127;28;20044;-72
2022/05/09 13:04:32;;;;;;;4.28;2.33;;;;;;;21.67;31.79;100336.06;10377509;28;20104;-73
2022/05/09 13:09:36;;;;;;;7.13;2.72;;;;;;;20.56;32.82;100205.75;10365338;28;20054;-72
2022/05/09 13:14:46;;;;;;;6.03;2.80;;;;;;;21.33;33.29;100329.66;10377171;28;20041;-74
2022/05/09 13:19:52;;;;;;;5.95;2.50;;;;;;;21.27;32.75;100309.84;10365176;28;20105;-74
2022/05/09 13:24:55;;;;;;;13.93;2.72;;;;;;;21.12;32.95;100263.59;10341279;28;20049;-72
2022/05/09 13:29:56;;;;;;;6.30;3.55;;;;;;;21.10;32.83;100268.44;10355541;28;20052;-72
2022/05/09 13:34:57;;;;;;;6.90;4.25;;;;;;;20.76;33.41;100225.06;10364663;28;20144;-72
2022/05/09 13:40:06;;;;;;;3.95;2.80;;;;;;;20.64;33.07;100208.06;10363550;28;20046;-73
2022/05/09 13:45:16;;;;;;;5.53;2.80;;;;;;;20.80;33.02;100250.53;10354397;28;20069;-73
2022/05/09 13:50:18;;;;;;;4.55;2.45;;;;;;;20.30;33.37;100192.47;10354335;28;20046;-74
2022/05/09 13:55:32;;;;;;;8.05;3.50;;;;;;;21.01;33.55;100321.16;10355821;28;20053;-73
2022/05/09 14:00:38;;;;;;;;;;;;;;;21.21;33.86;100316.22;10351314;28;20030;-72
2022/05/09 14:05:40;;;;;;;4.60;2.40;;;;;;;20.29;33.71;100228.59;10353307;28;20032;-75
2022/05/09 14:10:44;;;;;;;4.63;2.60;;;;;;;20.73;34.77;100304.66;10367518;28;20037;-73
2022/05/09 14:16:02;;;;;;;4.18;2.42;;;;;;;20.77;34.01;100291.50;10358804;28;20128;-75
2022/05/09 14:21:28;;;;;;;11.15;2.83;;;;;;;20.86;35.26;100297.34;10363342;28;20041;-73
2022/05/09 14:31:58;;;;;;;5.75;2.30;;;;;;;20.67;35.49;100266.97;10375689;28;20045;-73
2022/05/09 14:37:19;;;;;;;6.88;2.53;;;;;;;20.76;34.39;100300.66;10375644;28;20042;-73
2022/05/09 14:42:20;;;;;;;25.38;3.60;;;;;;;19.22;35.77;100112.78;10367042;28;20128;-73
2022/05/09 14:47:38;;;;;;;6.97;2.50;;;;;;;20.39;35.54;100314.34;10369438;28;20608;-72
2022/05/09 14:52:43;;;;;;;6.45;2.50;;;;;;;20.13;36.52;100295.88;10368526;28;20433;-72
2022/05/09 14:57:51;;;;;;;4.65;2.67;;;;;;;19.99;36.76;100300.69;10374343;28;20403;-74
2022/05/09 15:03:04;;;;;;;6.57;3.08;;;;;;;19.26;36.93;100167.81;10375406;28;20078;-73
2022/05/09 15:08:05;;;;;;;8.57;2.97;;;;;;;20.01;37.05;100296.72;10373626;28;20040;-73
2022/05/09 15:13:10;;;;;;;7.85;2.70;;;;;;;19.53;37.80;100241.00;10373310;28;20044;-72
2022/05/09 15:18:11;;;;;;;4.90;2.63;;;;;;;19.96;38.41;100304.66;10374574;28;20053;-73
2022/05/09 15:23:12;;;;;;;7.75;3.40;;;;;;;19.82;39.26;100297.81;10373759;28;20040;-72
2022/05/09 15:28:13;;;;;;;9.70;3.70;;;;;;;19.63;40.40;100320.47;10373347;28;20046;-75
2022/05/09 15:33:15;;;;;;;12.32;3.65;;;;;;;18.99;41.25;100240.03;10373943;28;20053;-72
2022/05/09 15:38:17;;;;;;;8.77;2.80;;;;;;;19.21;41.64;100306.91;10361726;28;20512;-72
2022/05/09 15:43:27;;;;;;;7.22;2.78;;;;;;;18.96;43.06;100323.94;10333904;28;20046;-72
2022/05/09 15:48:28;;;;;;;7.70;2.78;;;;;;;18.31;43.42;100275.06;10331798;28;20053;-72
2022/05/09 15:53:29;;;;;;;6.53;2.95;;;;;;;17.68;43.37;100247.22;10332185;28;20065;-74
2022/05/09 15:58:37;;;;;;;9.85;2.55;;;;;;;17.90;43.37;100327.50;10332248;28;20038;-73
2022/05/09 16:03:40;;;;;;;9.13;2.10;;;;;;;17.00;43.57;100220.13;10331312;28;20108;-73
2022/05/09 16:14:02;;;;;;;12.05;5.97;;;;;;;16.34;45.56;100221.94;10345981;28;20046;-72
2022/05/09 16:19:04;;;;;;;9.18;3.67;;;;;;;15.47;45.66;100140.75;10372914;28;20636;-71
2022/05/09 16:24:06;;;;;;;17.70;4.22;;;;;;;16.12;46.81;100287.50;10359258;28;20436;-72
2022/05/09 16:29:09;;;;;;;9.82;2.90;;;;;;;15.82;46.66;100293.22;10340176;28;20494;-71
2022/05/09 16:34:26;;;;;;;6.57;3.17;;;;;;;14.94;47.26;100190.66;10354053;28;20073;-70
2022/05/09 16:39:46;;;;;;;5.80;2.85;;;;;;;15.72;47.37;100341.03;10379753;28;20476;-72
2022/05/09 16:45:11;;;;;;;6.60;2.70;;;;;;;15.55;47.38;100339.69;10339746;28;20062;-69
2022/05/09 16:50:20;;;;;;;5.90;2.58;;;;;;;15.23;48.91;100342.88;10338208;28;20046;-71
2022/05/09 16:55:25;;;;;;;5.75;2.60;;;;;;;15.16;48.50;100347.34;10339024;28;20055;-72
2022/05/09 17:00:27;;;;;;;;;;;;;;;15.18;48.05;100352.50;10339537;28;20390;-72
2022/05/09 17:05:28;;;;;;;6.60;2.63;;;;;;;13.37;48.88;100106.44;10376970;28;19925;-73
2022/05/09 17:10:28;;;;;;;5.30;2.22;;;;;;;14.76;49.04;100354.31;10377871;28;20540;-75
2022/05/09 17:15:35;;;;;;;6.70;2.05;;;;;;;14.59;49.72;100335.88;10378977;28;20092;-73
2022/05/09 17:20:38;;;;;;;4.43;2.10;;;;;;;13.74;49.66;100208.56;10378847;28;20436;-73
2022/05/09 17:25:46;;;;;;;5.10;2.30;;;;;;;14.12;50.79;100291.91;10367977;28;20041;-72
2022/05/09 17:30:47;;;;;;;4.00;2.15;;;;;;;14.07;50.34;100304.19;10359775;28;20528;-73
2022/05/09 17:41:30;;;;;;;8.35;2.58;;;;;;;13.96;51.55;100329.53;10327121;28;20141;-73
2022/05/09 17:46:39;;;;;;;7.82;2.58;;;;;;;13.86;51.67;100329.03;10376536;28;20050;-71
2022/05/09 17:51:40;;;;;;;8.45;2.50;;;;;;;13.78;52.52;100350.50;10375780;28;20093;-71
2022/05/09 17:56:44;;;;;;;5.80;2.38;;;;;;;13.67;53.29;100347.31;10375019;28;20061;-71
2022/05/09 18:02:02;;;;;;;4.93;2.50;;;;;;;13.11;55.73;100276.84;10377760;28;20481;-71
2022/05/09 18:07:03;;;;;;;6.18;2.22;;;;;;;12.77;54.51;100236.41;10376454;28;20073;-71
2022/05/09 18:12:25;;;;;;;6.25;2.45;;;;;;;13.42;57.13;100359.31;10376007;28;20068;-71
2022/05/09 18:17:36;;;;;;;5.57;2.10;;;;;;;13.15;56.71;100350.94;10376302;28;20080;-71
2022/05/09 18:22:40;;;;;;;8.68;2.80;;;;;;;13.01;57.39;100347.28;10376614;28;20049;-71
2022/05/09 18:27:41;;;;;;;9.17;2.77;;;;;;;12.63;57.88;100306.53;10375702;28;20481;-72
2022/05/09 18:32:50;;;;;;;6.47;2.50;;;;;;;11.56;59.83;100162.84;10375238;28;20042;-71
2022/05/09 18:37:56;;;;;;;6.13;2.35;;;;;;;12.54;59.42;100328.94;10370199;28;20091;-71
2022/05/09 18:43:00;;;;;;;9.35;2.40;;;;;;;12.11;59.19;100296.66;10350882;28;20413;-73
2022/05/09 18:48:01;;;;;;;27.25;3.17;;;;;;;12.35;59.50;100330.25;10373530;28;20068;-71
2022/05/09 18:53:11;;;;;;;12.57;3.15;;;;;;;12.14;62.03;100306.97;10374742;28;20054;-71
2022/05/09 18:58:16;;;;;;;7.97;2.08;;;;;;;11.19;61.78;100176.94;10374247;28;20045;-71
2022/05/09 19:03:17;;;;;;;4.65;2.17;;;;;;;11.92;61.62;100297.16;10367897;28;20324;-71
2022/05/09 19:08:26;;;;;;;5.53;2.35;;;;;;;11.70;63.89;100265.03;10373412;28;20493;-71
2022/05/09 19:13:28;;;;;;;5.45;2.22;;;;;;;11.35;61.74;100223.84;10367220;28;20089;-73
2022/05/09 19:18:29;;;;;;;7.70;2.33;;;;;;;11.66;62.54;100303.63;10367947;28;20967;-71
2022/05/09 19:23:29;;;;;;;5.22;2.33;;;;;;;10.71;62.73;100150.44;10345102;28;20049;-72
2022/05/09 19:28:33;;;;;;;5.60;2.30;;;;;;;11.53;63.72;100317.50;10357114;28;20038;-70
2022/05/09 19:33:34;;;;;;;7.53;2.10;;;;;;;10.34;62.73;100139.63;10358181;28;20042;-71
2022/05/09 19:38:37;;;;;;;6.90;2.10;;;;;;;10.85;63.61;100243.72;10373178;28;20034;-71
2022/05/09 19:43:39;;;;;;;6.60;2.20;;;;;;;10.63;64.28;100234.66;10372560;28;20045;-71
2022/05/09 19:48:40;;;;;;;8.43;2.22;;;;;;;10.87;64.62;100286.88;10372592;28;20100;-71
2022/05/09 19:54:00;;;;;;;7.72;2.13;;;;;;;9.73;64.53;100110.06;10372546;28;20068;-72
2022/05/09 19:59:01;;;;;;;6.03;1.88;;;;;;;9.87;64.63;100154.50;10339859;28;20045;-71
2022/05/09 20:04:02;;;;;;;3.67;2.00;;;;;;;9.86;65.63;100182.00;10331169;28;20049;-71
2022/05/09 20:09:03;;;;;;;7.80;2.80;;;;;;;10.00;66.95;100234.41;10346868;28;20098;-71
2022/05/09 20:14:05;;;;;;;16.63;4.80;;;;;;;10.17;67.21;100301.59;10331744;28;20081;-71
2022/05/09 20:19:06;;;;;;;24.60;5.82;;;;;;;9.82;67.73;100284.16;10331596;28;20045;-70
2022/05/09 20:24:07;;;;;;;11.85;4.00;;;;;;;9.66;68.62;100268.22;10330878;28;20049;-71
2022/05/09 20:34:28;;;;;;;10.10;2.80;;;;;;;9.42;69.36;100259.22;10331685;28;20386;-71
2022/05/09 20:39:29;;;;;;;11.25;3.53;;;;;;;9.17;69.65;100254.88;10330987;28;20038;-71
2022/05/09 20:44:30;;;;;;;7.00;4.05;;;;;;;9.24;70.13;100269.13;10330583;28;20046;-71
2022/05/09 20:49:31;;;;;;;6.85;3.33;;;;;;;9.17;70.26;100271.59;10350703;28;20070;-71
2022/05/09 20:54:32;;;;;;;6.45;2.90;;;;;;;8.28;69.93;100142.25;10361626;28;20486;-72
2022/05/09 20:59:33;;;;;;;6.60;2.97;;;;;;;9.07;70.19;100295.56;10357680;28;20050;-72
2022/05/09 21:04:33;;;;;;;5.65;3.17;;;;;;;8.35;70.69;100194.41;10369068;28;20050;-72
2022/05/09 21:13:15;;;;;;;8.25;3.85;;;;;;;8.85;70.93;100278.41;10482000;27;1648523;-70
2022/05/09 21:18:16;;;;;;;9.68;3.65;;;;;;;8.64;71.86;100260.25;10539764;28;20044;-70
2022/05/09 21:23:19;;;;;;;21.75;2.92;;;;;;;8.18;71.40;100179.41;10574189;28;20065;-70
2022/05/09 21:28:26;;;;;;;6.53;3.00;;;;;;;8.23;73.43;100209.72;10573866;28;20036;-70
2022/05/09 21:33:28;;;;;;;10.55;3.30;;;;;;;7.95;71.98;100153.47;10573663;28;20043;-72
2022/05/09 21:43:55;;;;;;;8.00;3.13;;;;;;;8.65;72.40;100272.53;10573248;28;20067;-70
2022/05/09 21:48:56;;;;;;;9.48;3.13;;;;;;;8.01;73.47;100162.59;10566136;28;20069;-70
2022/05/09 21:53:58;;;;;;;6.30;3.33;;;;;;;8.64;73.50;100265.56;10556783;28;20044;-69
2022/05/09 21:59:02;;;;;;;8.55;3.30;;;;;;;8.50;73.82;100252.91;10506588;28;20094;-71
2022/05/09 22:04:05;;;;;;;8.35;3.00;;;;;;;8.38;73.64;100251.50;10488494;28;20458;-71
2022/05/09 22:09:15;;;;;;;6.35;2.88;;;;;;;8.44;74.93;100253.53;10520398;28;20063;-70
2022/05/09 22:14:16;;;;;;;4.22;2.38;;;;;;;7.69;73.84;100158.75;10572548;28;20093;-70
2022/05/09 22:19:17;;;;;;;8.52;2.85;;;;;;;8.18;74.32;100253.50;10571956;28;20089;-70
2022/05/09 22:24:19;;;;;;;6.57;3.05;;;;;;;7.76;74.71;100209.22;10544687;28;20040;-70
2022/05/09 22:29:28;;;;;;;8.25;3.17;;;;;;;8.00;75.89;100256.19;10543380;28;20040;-70
2022/05/09 22:34:32;;;;;;;7.80;2.83;;;;;;;7.78;75.94;100209.91;10543258;28;20040;-72
2022/05/09 22:39:37;;;;;;;8.90;3.30;;;;;;;7.66;76.53;100225.16;10543453;28;20044;-70
2022/05/09 22:44:45;;;;;;;5.55;3.15;;;;;;;7.78;77.56;100225.75;10502910;28;20515;-70
2022/05/09 22:49:46;;;;;;;4.00;2.72;;;;;;;7.47;75.74;100186.47;10460445;28;20078;-70
2022/05/09 22:54:47;;;;;;;5.75;2.40;;;;;;;7.84;75.99;100266.59;10460292;28;20064;-70
2022/05/09 22:59:48;;;;;;;6.55;2.45;;;;;;;7.64;75.88;100245.63;10459196;28;20079;-71
2022/05/09 23:04:49;;;;;;;6.10;2.88;;;;;;;7.51;76.50;100227.50;10458427;28;20127;-70
2022/05/09 23:09:50;;;;;;;5.05;3.00;;;;;;;7.10;76.23;100191.91;10457574;28;20148;-70
2022/05/09 23:14:52;;;;;;;8.52;3.10;;;;;;;7.13;76.73;100199.53;10457789;28;20056;-70
2022/05/09 23:19:53;;;;;;;6.85;2.83;;;;;;;7.42;77.05;100257.47;10456510;28;20040;-70
2022/05/09 23:24:55;;;;;;;6.43;2.72;;;;;;;7.46;76.82;100269.41;10459073;28;20489;-70
2022/05/09 23:29:59;;;;;;;6.45;2.72;;;;;;;7.34;77.82;100230.13;10457630;28;20040;-70
2022/05/09 23:35:00;;;;;;;5.78;3.20;;;;;;;7.46;77.54;100252.72;10456087;28;20064;-70
2022/05/09 23:40:02;;;;;;;6.38;3.13;;;;;;;7.34;78.01;100259.22;10458012;28;20049;-70
2022/05/09 23:45:04;;;;;;;4.95;3.10;;;;;;;6.84;79.19;100194.44;10457144;28;20041;-70
2022/05/09 23:50:05;;;;;;;5.53;3.22;;;;;;;7.18;78.82;100251.91;10439741;28;20467;-70
2022/05/09 23:55:06;;;;;;;5.43;2.90;;;;;;;6.99;78.79;100234.38;10456585;28;20048;-70
